createdAt,value
2023-02-15T00:02:48.735Z,99598.41
2023-02-15T00:05:51.283Z,99599.88
2023-02-15T00:08:55.239Z,99601.56
2023-02-15T00:11:58.004Z,99608.63
2023-02-15T00:15:00.524Z,99602.41
2023-02-15T00:18:03.074Z,99589.41
2023-02-15T00:21:07.450Z,99601.44
2023-02-15T00:24:12.165Z,99599.63
2023-02-15T00:27:14.786Z,99599.53
2023-02-15T00:30:17.664Z,99591.97
2023-02-15T00:33:20.855Z,99597.97
2023-02-15T00:36:23.431Z,99585.00
2023-02-15T00:39:26.727Z,99585.78
2023-02-15T00:42:29.242Z,99594.88
2023-02-15T00:45:31.920Z,99585.00
2023-02-15T00:48:34.524Z,99587.91
2023-02-15T00:51:37.042Z,99586.22
2023-02-15T00:54:40.242Z,99587.06
2023-02-15T00:57:43.330Z,99579.84
2023-02-15T01:00:47.672Z,99583.81
2023-02-15T01:03:50.554Z,99575.06
2023-02-15T01:06:53.494Z,99581.13
2023-02-15T01:09:56.057Z,99574.22
2023-02-15T01:12:58.630Z,99579.63
2023-02-15T01:16:01.721Z,99577.41
2023-02-15T01:19:04.586Z,99575.91
2023-02-15T01:22:07.843Z,99580.09
2023-02-15T01:25:11.578Z,99573.88
2023-02-15T01:28:14.223Z,99574.56
2023-02-15T01:31:18.460Z,99577.84
2023-02-15T01:34:21.485Z,99572.75
2023-02-15T01:37:24.215Z,99568.59
2023-02-15T01:40:27.162Z,99576.41
2023-02-15T01:43:43.797Z,99580.22
2023-02-15T01:46:50.835Z,99562.22
2023-02-15T01:50:05.393Z,99569.22
2023-02-15T01:53:20.234Z,99563.19
2023-02-15T01:56:29.694Z,99567.34
2023-02-15T01:59:33.416Z,99561.91
2023-02-15T02:02:37.447Z,99569.66
2023-02-15T02:05:40.986Z,99563.47
2023-02-15T02:08:43.634Z,99551.66
2023-02-15T02:11:49.775Z,99554.34
2023-02-15T02:14:52.988Z,99543.19
2023-02-15T02:18:10.915Z,99538.19
2023-02-15T02:21:36.484Z,99542.72
2023-02-15T02:24:41.843Z,99542.34
2023-02-15T02:28:16.453Z,99540.78
2023-02-15T02:31:40.959Z,99533.22
2023-02-15T02:34:56.610Z,99536.84
2023-02-15T02:38:38.523Z,99540.22
2023-02-15T02:41:55.896Z,99538.19
2023-02-15T02:45:03.289Z,99534.91
2023-02-15T02:48:16.628Z,99529.16
2023-02-15T02:51:31.973Z,99526.16
2023-02-15T02:54:41.320Z,99539.19
2023-02-15T02:57:55.019Z,99536.63
2023-02-15T03:01:02.666Z,99532.72
2023-02-15T03:04:10.506Z,99535.09
2023-02-15T03:07:17.264Z,99537.66
2023-02-15T03:10:22.612Z,99539.34
2023-02-15T03:13:27.750Z,99530.75
2023-02-15T03:16:31.003Z,99539.41
2023-02-15T03:19:36.209Z,99530.47
2023-02-15T03:22:53.112Z,99532.44
2023-02-15T03:26:02.017Z,99539.50
2023-02-15T03:29:09.551Z,99536.22
2023-02-15T03:32:14.648Z,99532.75
2023-02-15T03:35:17.591Z,99530.22
2023-02-15T03:38:29.681Z,99533.72
2023-02-15T03:41:35.742Z,99525.44
2023-02-15T03:44:54.850Z,99529.81
2023-02-15T03:47:58.393Z,99533.44
2023-02-15T03:51:29.689Z,99531.66
2023-02-15T03:54:43.833Z,99532.41
2023-02-15T03:58:05.482Z,99535.75
2023-02-15T04:01:36.245Z,99535.13
2023-02-15T04:04:42.299Z,99531.97
2023-02-15T04:07:45.361Z,99537.63
2023-02-15T04:10:53.908Z,99537.13
2023-02-15T04:13:57.840Z,99539.22
2023-02-15T04:17:00.427Z,99545.28
2023-02-15T04:20:21.903Z,99540.97
2023-02-15T04:23:42.972Z,99536.66
2023-02-15T04:26:45.536Z,99542.81
2023-02-15T04:29:51.136Z,99540.41
2023-02-15T04:32:55.206Z,99542.97
2023-02-15T04:35:57.838Z,99545.78
2023-02-15T04:39:00.766Z,99543.03
2023-02-15T04:42:03.364Z,99538.81
2023-02-15T04:45:06.418Z,99548.41
2023-02-15T04:48:09.041Z,99537.34
2023-02-15T04:51:12.403Z,99520.66
2023-02-15T04:54:14.892Z,99541.03
2023-02-15T04:57:17.584Z,99528.38
2023-02-15T05:00:20.362Z,99534.28
2023-02-15T05:03:22.943Z,99534.81
2023-02-15T05:06:25.524Z,99538.13
2023-02-15T05:09:28.287Z,99542.56
2023-02-15T05:12:31.095Z,99541.09
2023-02-15T05:15:33.730Z,99545.34
2023-02-15T05:18:36.409Z,99536.50
2023-02-15T05:21:39.055Z,99547.78
2023-02-15T05:25:00.331Z,99542.69
2023-02-15T05:28:21.345Z,99539.16
2023-02-15T05:31:24.395Z,99545.22
2023-02-15T05:34:27.685Z,99546.16
2023-02-15T05:37:30.454Z,99548.41
2023-02-15T05:40:33.643Z,99541.72
2023-02-15T05:43:36.746Z,99547.63
2023-02-15T05:46:39.941Z,99554.75
2023-02-15T05:49:42.627Z,99555.75
2023-02-15T05:52:46.118Z,99563.50
2023-02-15T05:55:49.490Z,99562.31
2023-02-15T05:58:54.581Z,99566.22
2023-02-15T06:01:57.704Z,99573.88
2023-02-15T06:05:00.582Z,99576.69
2023-02-15T06:08:05.850Z,99576.78
2023-02-15T06:11:09.402Z,99576.75
2023-02-15T06:14:12.553Z,99586.69
2023-02-15T06:17:15.351Z,99592.59
2023-02-15T06:20:18.555Z,99592.28
2023-02-15T06:23:21.327Z,99583.63
2023-02-15T06:26:24.224Z,99589.28
2023-02-15T06:29:27.199Z,99601.72
2023-02-15T06:32:32.028Z,99593.75
2023-02-15T06:35:34.839Z,99594.31
2023-02-15T06:38:37.957Z,99592.19
2023-02-15T06:41:43.293Z,99594.53
2023-02-15T06:44:46.643Z,99596.88
2023-02-15T06:47:49.467Z,99599.03
2023-02-15T06:50:52.174Z,99592.47
2023-02-15T06:53:54.933Z,99592.03
2023-02-15T06:56:57.616Z,99587.34
2023-02-15T07:00:00.880Z,99595.69
2023-02-15T07:03:04.054Z,99591.75
2023-02-15T07:06:12.076Z,99580.75
2023-02-15T07:09:14.762Z,99582.16
2023-02-15T07:12:36.345Z,99591.09
2023-02-15T07:15:39.095Z,99596.84
2023-02-15T07:18:42.136Z,99590.72
2023-02-15T07:21:46.750Z,99590.59
2023-02-15T07:24:50.671Z,99583.19
2023-02-15T07:28:04.093Z,99580.97
2023-02-15T07:31:06.891Z,99582.59
2023-02-15T07:34:10.264Z,99576.97
2023-02-15T07:37:13.023Z,99576.47
2023-02-15T07:40:16.491Z,99583.63
2023-02-15T07:43:19.336Z,99579.91
2023-02-15T07:46:23.040Z,99574.38
2023-02-15T07:49:25.821Z,99566.47
2023-02-15T07:52:29.326Z,99569.06
2023-02-15T07:55:32.672Z,99570.16
2023-02-15T07:58:54.056Z,99565.63
2023-02-15T08:01:58.376Z,99564.78
2023-02-15T08:05:01.292Z,99566.47
2023-02-15T08:08:04.970Z,99562.22
2023-02-15T08:11:27.273Z,99561.81
2023-02-15T08:14:29.889Z,99565.72
2023-02-15T08:17:32.452Z,99558.66
2023-02-15T08:20:34.939Z,99562.91
2023-02-15T08:23:37.675Z,99562.31
2023-02-15T08:26:42.425Z,99553.69
2023-02-15T08:29:45.514Z,99553.16
2023-02-15T08:32:48.170Z,99555.53
2023-02-15T08:35:50.780Z,99551.97
2023-02-15T08:38:53.601Z,99560.53
2023-02-15T08:41:56.390Z,99558.25
2023-02-15T08:44:59.189Z,99559.66
2023-02-15T08:48:02.377Z,99558.00
2023-02-15T08:59:05.813Z,99552.69
2023-02-15T09:02:11.444Z,99542.47
2023-02-15T09:09:34.186Z,99542.84
2023-02-15T09:12:36.954Z,99541.81
2023-02-15T09:15:39.585Z,99544.91
2023-02-15T09:18:42.248Z,99540.28
2023-02-15T09:21:44.848Z,99540.94
2023-02-15T09:24:47.660Z,99543.06
2023-02-15T09:27:50.272Z,99534.44
2023-02-15T09:30:54.372Z,99537.19
2023-02-15T09:33:57.600Z,99542.50
2023-02-15T09:37:00.145Z,99536.84
2023-02-15T09:40:02.811Z,99543.63
2023-02-15T09:43:16.722Z,99547.63
2023-02-15T09:46:25.197Z,99542.94
2023-02-15T09:49:33.804Z,99539.44
2023-02-15T09:53:10.959Z,99546.53
2023-02-15T09:56:31.118Z,99540.44
2023-02-15T09:59:47.369Z,99530.75
2023-02-15T10:03:01.292Z,99529.69
2023-02-15T10:06:06.964Z,99529.19
2023-02-15T10:09:47.720Z,99534.31
2023-02-15T10:13:10.742Z,99525.00
2023-02-15T10:16:35.850Z,99517.84
2023-02-15T10:19:58.917Z,99518.50
2023-02-15T10:23:20.215Z,99525.63
2023-02-15T10:26:28.271Z,99514.84
2023-02-15T10:29:38.811Z,99507.97
2023-02-15T10:33:05.057Z,99508.09
2023-02-15T10:36:46.911Z,99507.78
2023-02-15T10:40:20.889Z,99512.09
2023-02-15T10:43:58.912Z,99515.19
2023-02-15T10:47:34.996Z,99504.91
2023-02-15T10:50:54.342Z,99503.69
2023-02-15T10:54:29.845Z,99511.75
2023-02-15T10:57:38.641Z,99512.50
2023-02-15T11:00:49.021Z,99502.56
2023-02-15T11:04:18.220Z,99496.69
2023-02-15T11:07:28.378Z,99494.75
2023-02-15T11:10:43.611Z,99490.72
2023-02-15T11:13:50.903Z,99491.34
2023-02-15T11:16:54.470Z,99487.34
2023-02-15T11:20:08.917Z,99474.72
2023-02-15T11:23:17.395Z,99461.78
2023-02-15T11:26:39.594Z,99464.25
2023-02-15T11:29:54.528Z,99464.88
2023-02-15T11:32:59.521Z,99476.94
2023-02-15T11:36:06.722Z,99463.66
2023-02-15T11:39:13.453Z,99461.19
2023-02-15T11:42:20.425Z,99466.47
2023-02-15T11:45:29.331Z,99470.53
2023-02-15T11:48:33.124Z,99463.47
2023-02-15T11:51:36.460Z,99454.66
2023-02-15T11:54:43.219Z,99447.41
2023-02-15T11:57:51.828Z,99446.31
2023-02-15T12:01:10.668Z,99447.13
2023-02-15T12:04:22.696Z,99437.47
2023-02-15T12:07:48.423Z,99438.25
2023-02-15T12:11:13.769Z,99429.16
2023-02-15T12:14:19.212Z,99421.94
2023-02-15T12:17:23.262Z,99422.78
2023-02-15T12:20:30.391Z,99426.44
2023-02-15T12:23:33.446Z,99430.09
2023-02-15T12:26:36.854Z,99426.56
2023-02-15T12:29:45.365Z,99424.97
2023-02-15T12:33:25.180Z,99428.34
2023-02-15T12:36:33.733Z,99422.94
2023-02-15T12:39:36.312Z,99410.88
2023-02-15T12:42:44.371Z,99409.28
2023-02-15T12:45:47.022Z,99397.91
2023-02-15T12:49:08.044Z,99402.22
2023-02-15T12:52:20.660Z,99394.41
2023-02-15T12:55:31.060Z,99392.53
2023-02-15T12:58:35.818Z,99383.19
2023-02-15T13:01:38.621Z,99383.50
2023-02-15T13:04:49.277Z,99386.72
2023-02-15T13:07:56.022Z,99382.91
2023-02-15T13:11:11.066Z,99375.19
2023-02-15T13:14:23.141Z,99382.25
2023-02-15T13:17:32.786Z,99380.22
2023-02-15T13:20:36.599Z,99381.25
2023-02-15T13:23:40.992Z,99382.38
2023-02-15T13:26:48.309Z,99375.50
2023-02-15T13:29:54.481Z,99374.69
2023-02-15T13:33:12.208Z,99376.69
2023-02-15T13:36:31.452Z,99378.47
2023-02-15T13:39:58.464Z,99380.59
2023-02-15T13:43:12.683Z,99373.06
2023-02-15T13:46:53.037Z,99372.53
2023-02-15T13:50:28.696Z,99364.91
2023-02-15T13:53:43.509Z,99366.13
2023-02-15T13:56:55.000Z,99364.19
2023-02-15T13:59:57.910Z,99365.19
2023-02-15T14:03:22.261Z,99354.28
2023-02-15T14:06:43.796Z,99351.94
2023-02-15T14:10:15.755Z,99358.19
2023-02-15T14:13:39.596Z,99350.19
2023-02-15T14:17:05.793Z,99348.00
2023-02-15T14:20:41.377Z,99346.69
2023-02-15T14:23:54.773Z,99342.38
2023-02-15T14:27:20.906Z,99336.19
2023-02-15T14:30:38.997Z,99333.78
2023-02-15T14:33:47.323Z,99331.47
2023-02-15T14:36:52.216Z,99336.03
2023-02-15T14:41:02.566Z,99336.03
2023-02-15T14:44:27.216Z,99315.06
2023-02-15T14:47:37.374Z,99324.09
2023-02-15T14:50:43.926Z,99324.28
2023-02-15T14:53:47.521Z,99316.41
2023-02-15T14:57:02.346Z,99313.63
2023-02-15T15:00:35.370Z,99322.19
2023-02-15T15:03:38.453Z,99320.50
2023-02-15T15:06:45.129Z,99309.53
2023-02-15T15:09:59.506Z,99311.94
2023-02-15T15:13:34.090Z,99311.78
2023-02-15T15:16:36.722Z,99315.81
2023-02-15T15:19:52.762Z,99304.97
2023-02-15T15:23:22.253Z,99314.03
2023-02-15T15:26:26.498Z,99314.56
2023-02-15T15:29:41.975Z,99317.25
2023-02-15T15:32:59.768Z,99316.59
2023-02-15T15:36:37.968Z,99319.97
2023-02-15T15:39:55.625Z,99311.22
2023-02-15T15:43:17.184Z,99313.94
2023-02-15T15:46:51.770Z,99313.59
2023-02-15T15:49:58.819Z,99313.75
2023-02-15T15:53:02.857Z,99313.75
2023-02-15T15:56:11.597Z,99309.88
2023-02-15T15:59:20.221Z,99313.75
2023-02-15T16:02:24.803Z,99317.91
2023-02-15T16:05:27.694Z,99320.09
2023-02-15T16:08:31.688Z,99313.50
2023-02-15T16:11:34.876Z,99317.75
2023-02-15T16:14:39.962Z,99315.25
2023-02-15T16:17:44.784Z,99318.25
2023-02-15T16:20:52.869Z,99324.84
2023-02-15T16:24:19.128Z,99327.44
2023-02-15T16:27:38.129Z,99327.09
2023-02-15T16:30:43.396Z,99326.41
2023-02-15T16:33:47.523Z,99330.09
2023-02-15T16:36:52.099Z,99326.56
2023-02-15T16:39:56.256Z,99330.22
2023-02-15T16:43:06.298Z,99327.94
2023-02-15T16:46:14.904Z,99325.63
2023-02-15T16:49:23.551Z,99331.25
2023-02-15T16:52:27.651Z,99339.41
2023-02-15T16:55:38.957Z,99337.09
2023-02-15T16:58:44.388Z,99343.03
2023-02-15T17:01:47.387Z,99336.94
2023-02-15T17:05:21.085Z,99331.03
2023-02-15T17:08:35.555Z,99338.44
2023-02-15T17:11:42.860Z,99338.94
2023-02-15T17:14:45.410Z,99328.44
2023-02-15T17:17:48.207Z,99334.56
2023-02-15T17:20:52.905Z,99332.88
2023-02-15T17:24:01.390Z,99335.97
2023-02-15T17:27:26.140Z,99339.09
2023-02-15T17:30:34.873Z,99333.53
2023-02-15T17:33:40.535Z,99337.13
2023-02-15T17:36:59.645Z,99327.16
2023-02-15T17:40:16.054Z,99328.28
2023-02-15T17:43:19.052Z,99327.09
2023-02-15T17:46:24.553Z,99324.97
2023-02-15T17:49:35.202Z,99331.88
2023-02-15T17:52:37.968Z,99329.72
2023-02-15T17:55:41.668Z,99319.41
2023-02-15T17:58:44.725Z,99330.50
2023-02-15T18:02:08.120Z,99326.91
2023-02-15T18:05:33.452Z,99326.66
2023-02-15T18:08:54.853Z,99329.38
2023-02-15T18:11:58.171Z,99327.25
2023-02-15T18:15:07.954Z,99329.28
2023-02-15T18:18:14.102Z,99334.81
2023-02-15T18:21:16.980Z,99331.00
2023-02-15T18:24:24.878Z,99326.81
2023-02-15T18:27:27.650Z,99338.16
2023-02-15T18:30:30.684Z,99339.09
2023-02-15T18:33:41.546Z,99339.09
2023-02-15T18:36:46.256Z,99335.06
2023-02-15T18:39:50.840Z,99348.63
2023-02-15T18:42:53.934Z,99341.16
2023-02-15T18:45:57.053Z,99334.75
2023-02-15T18:49:00.326Z,99339.19
2023-02-15T18:52:04.127Z,99334.88
2023-02-15T18:55:23.527Z,99338.47
2023-02-15T18:58:28.438Z,99339.50
2023-02-15T19:01:31.579Z,99337.00
2023-02-15T19:04:34.578Z,99337.63
2023-02-15T19:07:37.797Z,99334.09
2023-02-15T19:10:40.761Z,99335.88
2023-02-15T19:13:44.244Z,99334.13
2023-02-15T19:16:47.245Z,99326.47
2023-02-15T19:19:51.833Z,99329.97
2023-02-15T19:22:56.615Z,99333.56
2023-02-15T19:25:59.673Z,99326.88
2023-02-15T19:29:02.883Z,99331.31
2023-02-15T19:32:05.967Z,99322.06
2023-02-15T19:35:15.696Z,99315.72
2023-02-15T19:38:20.419Z,99314.66
2023-02-15T19:41:34.746Z,99315.56
2023-02-15T19:44:40.046Z,99315.50
2023-02-15T19:47:43.768Z,99313.06
2023-02-15T19:50:47.255Z,99311.69
2023-02-15T19:53:50.246Z,99312.69
2023-02-15T19:56:52.963Z,99310.31
2023-02-15T19:59:55.947Z,99313.66
2023-02-15T20:03:00.138Z,99311.16
2023-02-15T20:06:03.045Z,99322.31
2023-02-15T20:09:06.117Z,99315.66
2023-02-15T20:12:24.518Z,99313.88
2023-02-15T20:15:28.491Z,99316.41
2023-02-15T20:18:31.751Z,99312.88
2023-02-15T20:21:36.381Z,99305.16
2023-02-15T20:24:39.263Z,99307.13
2023-02-15T20:27:44.320Z,99308.81
2023-02-15T20:30:47.981Z,99316.69
2023-02-15T20:33:51.460Z,99319.25
2023-02-15T20:36:54.596Z,99317.63
2023-02-15T20:39:57.466Z,99325.25
2023-02-15T20:43:01.368Z,99317.59
2023-02-15T20:46:04.653Z,99317.44
2023-02-15T20:49:07.945Z,99316.94
2023-02-15T20:52:19.606Z,99316.22
2023-02-15T20:55:29.614Z,99309.41
2023-02-15T20:58:38.745Z,99307.66
2023-02-15T21:01:44.298Z,99311.16
2023-02-15T21:04:47.123Z,99311.25
2023-02-15T21:07:51.141Z,99316.63
2023-02-15T21:10:54.930Z,99308.19
2023-02-15T21:13:58.380Z,99306.41
2023-02-15T21:17:01.393Z,99306.44
2023-02-15T21:20:04.410Z,99306.34
2023-02-15T21:23:07.881Z,99301.16
2023-02-15T21:26:22.656Z,99303.84
2023-02-15T21:29:30.770Z,99294.19
2023-02-15T21:32:36.076Z,99294.13
2023-02-15T21:35:39.720Z,99284.34
2023-02-15T21:38:42.720Z,99285.16
2023-02-15T21:42:08.693Z,99277.91
2023-02-15T21:45:35.042Z,99276.25
2023-02-15T21:48:37.769Z,99281.31
2023-02-15T21:51:59.160Z,99279.34
2023-02-15T21:55:02.108Z,99279.34
2023-02-15T21:58:06.168Z,99279.91
2023-02-15T22:01:28.565Z,99289.84
2023-02-15T22:04:31.411Z,99287.16
2023-02-15T22:07:34.015Z,99287.38
2023-02-15T22:10:36.750Z,99271.97
2023-02-15T22:13:40.063Z,99280.72
2023-02-15T22:16:42.720Z,99274.03
2023-02-15T22:19:46.744Z,99275.78
2023-02-15T22:22:50.436Z,99280.91
2023-02-15T22:25:59.090Z,99280.13
2023-02-15T22:29:01.800Z,99285.88
2023-02-15T22:32:05.106Z,99270.22
2023-02-15T22:35:15.967Z,99283.78
2023-02-15T22:38:18.912Z,99273.25
2023-02-15T22:41:23.948Z,99271.47
2023-02-15T22:44:30.309Z,99266.78
2023-02-15T22:47:34.661Z,99266.53
2023-02-15T22:50:37.942Z,99277.38
2023-02-15T22:53:43.227Z,99277.16
2023-02-15T22:56:52.927Z,99275.34
2023-02-15T22:59:55.841Z,99268.44
2023-02-15T23:02:58.605Z,99274.28
2023-02-15T23:06:01.119Z,99268.81
2023-02-15T23:09:03.996Z,99278.91
2023-02-15T23:12:27.991Z,99283.22
2023-02-15T23:15:33.127Z,99270.59
2023-02-15T23:18:41.515Z,99271.94
2023-02-15T23:21:44.577Z,99273.50
2023-02-15T23:24:52.013Z,99265.81
2023-02-15T23:27:57.393Z,99265.59
2023-02-15T23:31:00.394Z,99263.78
2023-02-15T23:34:12.054Z,99258.59
2023-02-15T23:37:18.307Z,99259.19
2023-02-15T23:40:40.564Z,99266.03
2023-02-15T23:43:54.784Z,99267.63
2023-02-15T23:46:58.726Z,99264.78
2023-02-15T23:50:01.677Z,99253.72
2023-02-15T23:53:04.588Z,99254.44
2023-02-15T23:56:07.860Z,99256.38
2023-02-15T23:59:16.432Z,99245.06
